Time;durP1;ratioP1;P1;durP2;ratioP2;P2;SDS_P1;SDS_P2;PMS_P1;PMS_P2;Temp;Humidity;BMP_temperature;BMP_pressure;BME280_temperature;BME280_humidity;BME280_pressure;Samples;Min_cycle;Max_cycle;Signal;HPM_P1;HPM_P2
2021/07/08 00:00:20;;;;;;;16.97;4.10;;;18.70;99.90;;;;;;5070200;28;20516;-84
2021/07/08 00:02:48;;;;;;;14.47;4.80;;;18.60;99.90;;;;;;5071263;28;20509;-84
2021/07/08 00:05:16;;;;;;;14.17;4.70;;;18.60;99.90;;;;;;5071469;28;20496;-84
2021/07/08 00:07:43;;;;;;;12.10;3.50;;;18.60;99.90;;;;;;5071668;28;20534;-84
2021/07/08 00:10:14;;;;;;;14.80;3.30;;;18.60;99.90;;;;;;5070515;28;20518;-84
2021/07/08 00:12:41;;;;;;;14.07;3.97;;;18.50;99.90;;;;;;5049221;28;20895;-84
2021/07/08 00:15:12;;;;;;;14.40;4.73;;;18.50;99.90;;;;;;5071825;28;20457;-86
2021/07/08 00:17:39;;;;;;;14.03;4.27;;;18.40;99.90;;;;;;5071743;28;20892;-85
2021/07/08 00:20:09;;;;;;;15.33;3.57;;;18.30;99.90;;;;;;5073120;28;20481;-84
2021/07/08 00:22:36;;;;;;;14.57;4.23;;;18.30;99.90;;;;;;5082748;28;20454;-84
2021/07/08 00:25:05;;;;;;;13.37;4.13;;;18.20;99.90;;;;;;5066738;28;20555;-84
2021/07/08 00:27:32;;;;;;;13.50;3.90;;;18.20;99.90;;;;;;5073162;28;20571;-84
2021/07/08 00:29:58;;;;;;;14.97;4.63;;;18.10;99.90;;;;;;5058444;28;20538;-84
2021/07/08 00:32:27;;;;;;;15.27;4.97;;;18.10;99.90;;;;;;5059183;28;20463;-85
2021/07/08 00:34:54;;;;;;;14.17;4.00;;;18.10;99.90;;;;;;5050702;28;20466;-83
2021/07/08 00:37:20;;;;;;;14.87;4.37;;;18.10;99.90;;;;;;5058406;28;20448;-85
2021/07/08 00:39:47;;;;;;;13.67;3.90;;;18.10;99.90;;;;;;5058213;28;20529;-84
2021/07/08 00:42:14;;;;;;;15.50;4.00;;;18.00;99.90;;;;;;5059865;28;20511;-84
2021/07/08 00:44:41;;;;;;;13.93;4.30;;;18.00;99.90;;;;;;5061905;28;20607;-85
2021/07/08 00:47:08;;;;;;;15.10;4.20;;;18.00;99.90;;;;;;5061939;28;20456;-84
2021/07/08 00:49:36;;;;;;;16.20;4.20;;;17.90;99.90;;;;;;5061218;28;20460;-85
2021/07/08 00:52:03;;;;;;;14.70;4.40;;;17.90;99.90;;;;;;5071610;28;20458;-83
2021/07/08 00:54:30;;;;;;;12.30;3.57;;;17.90;99.90;;;;;;5070309;28;20473;-83
2021/07/08 00:56:57;;;;;;;13.83;3.87;;;17.90;99.90;;;;;;5071102;28;20451;-84
2021/07/08 00:59:24;;;;;;;16.33;4.27;;;17.80;99.90;;;;;;5077631;28;20495;-84
2021/07/08 01:01:52;;;;;;;12.30;4.13;;;17.80;99.90;;;;;;5068264;28;20502;-84
2021/07/08 01:04:19;;;;;;;14.00;4.13;;;17.80;99.90;;;;;;5070109;28;20470;-84
2021/07/08 01:06:48;;;;;;;14.07;4.83;;;17.80;99.90;;;;;;5062360;28;20829;-84
2021/07/08 01:09:16;;;;;;;13.30;4.10;;;17.70;99.90;;;;;;5060452;28;20495;-84
2021/07/08 01:11:43;;;;;;;19.43;4.40;;;17.70;99.90;;;;;;5062882;28;20523;-85
2021/07/08 01:14:10;;;;;;;13.23;4.63;;;17.60;99.90;;;;;;5062971;28;20494;-85
2021/07/08 01:16:37;;;;;;;14.50;4.13;;;17.60;99.90;;;;;;5061754;28;20451;-84
2021/07/08 01:19:04;;;;;;;13.33;4.17;;;17.50;99.90;;;;;;5061552;28;20492;-84
2021/07/08 01:21:34;;;;;;;14.00;4.63;;;17.50;99.90;;;;;;5063625;28;20956;-84
2021/07/08 01:24:03;;;;;;;12.80;4.43;;;17.50;99.90;;;;;;5063686;28;20495;-84
2021/07/08 01:26:31;;;;;;;13.13;4.30;;;17.50;99.90;;;;;;5063535;28;20826;-84
2021/07/08 01:28:58;;;;;;;13.57;4.27;;;17.50;99.90;;;;;;5061889;28;20488;-84
2021/07/08 01:31:27;;;;;;;13.90;4.10;;;17.50;99.90;;;;;;5062252;28;20456;-85
2021/07/08 01:33:54;;;;;;;13.07;3.93;;;17.50;99.90;;;;;;5063097;28;20456;-85
2021/07/08 01:36:21;;;;;;;13.87;4.40;;;17.50;99.90;;;;;;5060617;28;20463;-85
2021/07/08 01:38:49;;;;;;;14.53;4.27;;;17.50;99.90;;;;;;5066080;28;20471;-85
2021/07/08 01:41:17;;;;;;;14.77;3.83;;;17.40;99.90;;;;;;5060964;28;20550;-84
2021/07/08 01:43:44;;;;;;;14.03;4.07;;;17.40;99.90;;;;;;5065703;28;20509;-85
2021/07/08 01:46:14;;;;;;;13.83;4.57;;;17.40;99.90;;;;;;5076543;28;20531;-84
2021/07/08 01:48:40;;;;;;;12.07;3.80;;;17.40;99.90;;;;;;5086431;28;20486;-83
2021/07/08 01:51:20;;;;;;;14.60;4.47;;;17.30;99.90;;;;;;5068112;28;20448;-85
2021/07/08 01:53:48;;;;;;;15.40;4.63;;;17.30;99.90;;;;;;5050130;28;20442;-85
2021/07/08 01:56:16;;;;;;;16.03;4.50;;;17.20;99.90;;;;;;5064715;28;20462;-85
2021/07/08 01:58:43;;;;;;;12.63;4.10;;;17.20;99.90;;;;;;5063351;28;20551;-85
2021/07/08 02:01:09;;;;;;;12.50;4.50;;;17.20;99.90;;;;;;5064149;28;20558;-85
2021/07/08 02:07:35;;;;;;;12.57;3.90;;;17.10;99.90;;;;;;5062595;28;20865;-85
2021/07/08 02:10:05;;;;;;;13.30;4.10;;;17.10;99.90;;;;;;5062901;28;20519;-85
2021/07/08 02:12:31;;;;;;;13.60;4.20;;;17.00;99.90;;;;;;5063211;28;20483;-85
2021/07/08 02:14:58;;;;;;;13.13;4.40;;;17.00;99.90;;;;;;5063547;28;20458;-84
2021/07/08 02:17:25;;;;;;;13.60;4.30;;;17.00;99.90;;;;;;5063212;28;20490;-85
2021/07/08 02:19:52;;;;;;;13.60;4.17;;;17.00;99.90;;;;;;5061731;28;20475;-85
2021/07/08 02:22:19;;;;;;;11.70;3.97;;;17.00;99.90;;;;;;5061396;28;20454;-85
2021/07/08 02:24:45;;;;;;;12.57;4.30;;;16.90;99.90;;;;;;5060662;28;20449;-85
2021/07/08 02:27:14;;;;;;;12.50;3.87;;;16.90;99.90;;;;;;5060796;28;20462;-85
2021/07/08 02:29:41;;;;;;;12.57;4.53;;;16.90;99.90;;;;;;5058199;28;20873;-84
2021/07/08 02:32:08;;;;;;;13.30;4.80;;;16.90;99.90;;;;;;5055645;28;20889;-85
2021/07/08 02:34:36;;;;;;;12.63;3.90;;;16.90;99.90;;;;;;5055476;28;20479;-85
2021/07/08 02:37:03;;;;;;;10.70;3.47;;;16.90;99.90;;;;;;5057228;28;20513;-85
2021/07/08 02:39:30;;;;;;;12.70;3.90;;;16.90;99.90;;;;;;5057515;28;20448;-85
2021/07/08 02:41:57;;;;;;;12.07;3.53;;;16.90;99.90;;;;;;5059363;28;20535;-84
2021/07/08 02:44:25;;;;;;;11.93;3.70;;;16.80;99.90;;;;;;5067798;28;20455;-85
2021/07/08 02:46:52;;;;;;;14.00;4.73;;;16.80;99.90;;;;;;5058971;28;20519;-85
2021/07/08 02:49:19;;;;;;;11.40;4.60;;;16.80;99.90;;;;;;5058885;28;20494;-85
2021/07/08 02:51:46;;;;;;;13.03;3.83;;;16.80;99.90;;;;;;5057763;28;21040;-84
2021/07/08 02:54:12;;;;;;;15.10;5.43;;;16.80;99.90;;;;;;5057618;28;20448;-85
2021/07/08 02:56:39;;;;;;;13.23;4.00;;;16.70;99.90;;;;;;5056675;28;20448;-85
2021/07/08 02:59:06;;;;;;;13.47;4.30;;;16.70;99.90;;;;;;5057447;28;20571;-85
2021/07/08 03:01:34;;;;;;;14.97;4.80;;;16.70;99.90;;;;;;5055006;28;20459;-85
2021/07/08 03:04:01;;;;;;;13.03;4.07;;;16.70;99.90;;;;;;5055604;28;20460;-85
2021/07/08 03:06:28;;;;;;;13.17;4.57;;;16.70;99.90;;;;;;5054580;28;20455;-85
2021/07/08 03:08:55;;;;;;;11.17;3.83;;;16.70;99.90;;;;;;5055813;28;20504;-85
2021/07/08 03:11:23;;;;;;;14.03;4.20;;;16.70;99.90;;;;;;5056669;28;20505;-86
2021/07/08 03:13:50;;;;;;;14.87;4.30;;;16.70;99.90;;;;;;5056267;28;20875;-85
2021/07/08 03:16:17;;;;;;;11.30;4.03;;;16.70;99.90;;;;;;5055436;28;20458;-85
2021/07/08 03:18:45;;;;;;;11.73;4.00;;;16.70;99.90;;;;;;5055183;28;20547;-85
2021/07/08 03:21:12;;;;;;;12.17;3.90;;;16.70;99.90;;;;;;5055079;28;20452;-85
2021/07/08 03:23:39;;;;;;;12.10;4.30;;;16.60;99.90;;;;;;5054703;28;20443;-85
2021/07/08 03:26:05;;;;;;;12.17;4.40;;;16.60;99.90;;;;;;5054156;28;20537;-85
2021/07/08 03:28:32;;;;;;;14.00;4.10;;;16.60;99.90;;;;;;5053709;28;20480;-85
2021/07/08 03:30:59;;;;;;;12.67;4.27;;;16.60;99.90;;;;;;5053694;28;20462;-85
2021/07/08 03:33:26;;;;;;;12.50;3.87;;;16.60;99.90;;;;;;5053877;28;20531;-85
2021/07/08 03:35:54;;;;;;;10.77;3.43;;;16.60;99.90;;;;;;5053602;28;20563;-86
2021/07/08 03:38:21;;;;;;;12.23;4.17;;;16.60;99.90;;;;;;5053365;28;20478;-85
2021/07/08 03:40:48;;;;;;;12.10;4.07;;;16.60;99.90;;;;;;5037965;28;20464;-85
2021/07/08 03:43:14;;;;;;;14.70;3.83;;;16.60;99.90;;;;;;5053018;28;20443;-85
2021/07/08 03:45:41;;;;;;;11.23;3.80;;;16.60;99.90;;;;;;5053563;28;20858;-86
2021/07/08 03:48:08;;;;;;;11.43;4.17;;;16.60;99.90;;;;;;5051482;28;20583;-86
2021/07/08 03:50:35;;;;;;;11.83;4.00;;;16.60;99.90;;;;;;5051715;28;20447;-86
2021/07/08 03:53:03;;;;;;;12.90;3.87;;;16.60;99.90;;;;;;5051996;28;20459;-86
2021/07/08 03:55:31;;;;;;;13.53;4.00;;;16.60;99.90;;;;;;5052050;28;20467;-86
2021/07/08 03:57:58;;;;;;;12.80;3.83;;;16.60;99.90;;;;;;5051855;28;20843;-86
2021/07/08 04:00:31;;;;;;;11.80;4.10;;;16.60;99.90;;;;;;5058166;28;20440;-85
2021/07/08 04:03:00;;;;;;;12.77;4.80;;;16.60;99.90;;;;;;5057456;28;20466;-85
2021/07/08 04:05:26;;;;;;;12.83;4.07;;;16.60;99.90;;;;;;5056735;28;20530;-88
2021/07/08 04:07:53;;;;;;;11.80;3.67;;;16.60;99.90;;;;;;5054973;28;20483;-86
2021/07/08 04:10:22;;;;;;;11.93;3.77;;;16.60;99.90;;;;;;5065035;28;20511;-87
2021/07/08 04:12:48;;;;;;;10.90;3.90;;;16.70;99.90;;;;;;5072946;28;20487;-81
2021/07/08 04:15:15;;;;;;;11.50;4.10;;;16.60;99.90;;;;;;5070642;28;20509;-84
2021/07/08 04:17:42;;;;;;;13.03;4.10;;;16.70;99.90;;;;;;5073162;28;20451;-84
2021/07/08 04:20:12;;;;;;;12.67;4.40;;;16.70;99.90;;;;;;5075666;28;20444;-84
2021/07/08 04:22:39;;;;;;;11.10;3.73;;;16.70;99.90;;;;;;5081601;28;20451;-84
2021/07/08 04:25:07;;;;;;;11.60;4.30;;;16.70;99.90;;;;;;5088864;28;20454;-84
2021/07/08 04:27:36;;;;;;;11.73;3.77;;;16.80;99.90;;;;;;5081410;28;20533;-84
2021/07/08 04:30:05;;;;;;;12.87;4.13;;;16.80;99.90;;;;;;5085980;28;20474;-84
2021/07/08 04:32:32;;;;;;;12.60;3.63;;;16.80;99.90;;;;;;5089286;28;20533;-84
2021/07/08 04:34:59;;;;;;;11.53;4.20;;;16.80;99.90;;;;;;5075084;28;20452;-84
2021/07/08 04:37:26;;;;;;;11.53;3.93;;;16.80;99.90;;;;;;5075507;28;20467;-84
2021/07/08 04:39:52;;;;;;;11.43;3.97;;;16.80;99.90;;;;;;5071583;28;20472;-84
2021/07/08 04:42:20;;;;;;;13.40;4.30;;;16.80;99.90;;;;;;5072063;28;20454;-84
2021/07/08 04:44:48;;;;;;;14.03;4.37;;;16.80;99.90;;;;;;5071483;28;20459;-84
2021/07/08 04:47:15;;;;;;;11.90;3.60;;;16.80;99.90;;;;;;5082777;28;20447;-84
2021/07/08 04:49:42;;;;;;;11.90;4.37;;;16.90;99.90;;;;;;5070384;28;20480;-84
2021/07/08 04:52:09;;;;;;;14.13;4.10;;;17.00;99.90;;;;;;5067849;28;20470;-83
2021/07/08 04:54:35;;;;;;;11.07;3.83;;;17.00;99.90;;;;;;5063197;28;20522;-83
2021/07/08 04:57:02;;;;;;;13.10;4.27;;;17.20;99.90;;;;;;5059884;28;20452;-84
2021/07/08 04:59:29;;;;;;;11.40;4.20;;;17.30;99.90;;;;;;5061021;28;20476;-85
2021/07/08 05:01:57;;;;;;;11.77;4.67;;;17.30;99.90;;;;;;5062097;28;20562;-83
2021/07/08 05:04:24;;;;;;;14.10;4.27;;;17.40;99.90;;;;;;5062720;28;20547;-84
2021/07/08 05:06:51;;;;;;;15.67;4.67;;;17.50;99.90;;;;;;5062130;28;20462;-84
2021/07/08 05:09:18;;;;;;;13.87;4.70;;;17.60;99.90;;;;;;5061839;28;20493;-83
2021/07/08 05:11:44;;;;;;;14.47;3.60;;;17.60;99.90;;;;;;5075995;28;20515;-83
2021/07/08 05:14:11;;;;;;;12.33;5.07;;;17.70;99.90;;;;;;5075886;28;20448;-83
2021/07/08 05:16:38;;;;;;;12.20;4.20;;;17.80;99.90;;;;;;5075233;28;20446;-82
2021/07/08 05:19:06;;;;;;;13.30;4.77;;;17.80;99.90;;;;;;5071102;28;20528;-83
2021/07/08 05:21:33;;;;;;;12.40;4.20;;;17.90;99.90;;;;;;5088261;28;20512;-83
2021/07/08 05:24:03;;;;;;;13.40;4.23;;;18.00;99.90;;;;;;5085496;28;20476;-83
2021/07/08 05:26:30;;;;;;;18.80;4.10;;;18.10;99.90;;;;;;5082755;28;20451;-84
2021/07/08 05:28:57;;;;;;;11.90;4.13;;;18.10;99.90;;;;;;5080949;28;20491;-83
2021/07/08 05:31:24;;;;;;;13.90;4.37;;;18.20;99.90;;;;;;5075368;28;20446;-84
2021/07/08 05:33:50;;;;;;;10.33;4.00;;;18.30;99.90;;;;;;5083327;28;20436;-85
2021/07/08 05:36:19;;;;;;;14.10;4.53;;;18.30;99.90;;;;;;5079712;28;20448;-84
2021/07/08 05:38:45;;;;;;;11.87;4.70;;;18.40;99.90;;;;;;5073499;28;20464;-84
2021/07/08 05:41:12;;;;;;;12.33;4.40;;;18.50;99.90;;;;;;5060736;28;20458;-84
2021/07/08 05:43:39;;;;;;;12.00;4.00;;;18.50;99.90;;;;;;5070739;28;20667;-84
2021/07/08 05:46:06;;;;;;;11.77;4.43;;;18.60;99.90;;;;;;5069030;28;20461;-83
2021/07/08 05:48:32;;;;;;;11.30;5.03;;;18.70;99.90;;;;;;5075443;28;20510;-84
2021/07/08 05:50:59;;;;;;;12.53;4.30;;;18.70;99.90;;;;;;5071533;28;20453;-84
2021/07/08 05:53:27;;;;;;;13.50;5.33;;;18.80;99.90;;;;;;5059680;28;20535;-84
2021/07/08 05:55:54;;;;;;;14.20;4.43;;;18.90;99.90;;;;;;5058798;28;20452;-84
2021/07/08 05:58:21;;;;;;;13.53;5.07;;;19.00;99.90;;;;;;5059140;28;20515;-83
2021/07/08 06:00:48;;;;;;;14.33;6.30;;;19.00;99.90;;;;;;5059818;28;20459;-84
2021/07/08 06:03:17;;;;;;;12.33;4.20;;;19.10;99.90;;;;;;5059810;28;20460;-84
2021/07/08 06:05:45;;;;;;;17.13;4.67;;;19.20;99.90;;;;;;5059531;28;20448;-84
2021/07/08 06:08:12;;;;;;;14.93;4.50;;;19.30;99.90;;;;;;5054287;28;20868;-85
2021/07/08 06:10:41;;;;;;;13.73;4.47;;;19.30;99.90;;;;;;5068695;28;20479;-84
2021/07/08 06:13:08;;;;;;;12.63;4.03;;;19.40;99.90;;;;;;5058987;28;20459;-84
2021/07/08 06:15:34;;;;;;;10.77;3.73;;;19.50;99.90;;;;;;5059503;28;20452;-83
2021/07/08 06:18:05;;;;;;;16.83;5.10;;;19.50;99.90;;;;;;5067577;28;20486;-82
2021/07/08 06:20:33;;;;;;;12.27;4.63;;;19.70;99.90;;;;;;5064986;28;20447;-83
2021/07/08 06:23:04;;;;;;;12.83;4.50;;;19.70;99.90;;;;;;5069042;28;20528;-82
2021/07/08 06:25:31;;;;;;;15.57;4.40;;;19.80;99.90;;;;;;5067217;28;20984;-84
2021/07/08 06:31:21;;;;;;;13.30;4.57;;;19.90;99.90;;;;;;5051558;28;20419;-84
2021/07/08 06:33:50;;;;;;;12.10;4.13;;;20.00;99.90;;;;;;5056675;28;20444;-83
2021/07/08 06:36:17;;;;;;;11.77;3.50;;;20.10;99.90;;;;;;5056791;28;20451;-84
2021/07/08 06:38:44;;;;;;;14.67;4.03;;;20.10;99.90;;;;;;5057198;28;20452;-82
2021/07/08 06:41:11;;;;;;;16.80;3.33;;;20.20;99.90;;;;;;5056575;28;20456;-85
2021/07/08 06:43:38;;;;;;;26.70;4.17;;;20.30;99.90;;;;;;5056867;28;20444;-85
2021/07/08 06:46:05;;;;;;;19.80;3.60;;;20.30;99.90;;;;;;5057206;28;20447;-85
2021/07/08 06:48:33;;;;;;;17.47;3.40;;;20.40;99.90;;;;;;5058539;28;20866;-86
2021/07/08 06:51:08;;;;;;;13.40;3.43;;;20.40;99.90;;;;;;5057532;28;20963;-87
2021/07/08 06:53:37;;;;;;;16.10;4.20;;;20.50;99.90;;;;;;5051300;28;20523;-85
2021/07/08 06:56:05;;;;;;;16.23;3.70;;;20.50;99.90;;;;;;5054265;28;20464;-88
2021/07/08 06:58:42;;;;;;;16.50;3.10;;;20.60;99.90;;;;;;5067876;28;20547;-86
2021/07/08 07:01:12;;;;;;;15.27;3.80;;;20.60;99.90;;;;;;5072148;28;20807;-87
2021/07/08 07:03:40;;;;;;;18.23;3.80;;;20.70;99.90;;;;;;5057315;28;20992;-85
2021/07/08 07:06:08;;;;;;;16.93;3.23;;;20.70;99.90;;;;;;5049858;28;20452;-85
2021/07/08 07:08:35;;;;;;;17.40;4.40;;;20.80;99.90;;;;;;5051970;28;20463;-87
2021/07/08 07:11:02;;;;;;;21.03;4.20;;;20.80;99.90;;;;;;5048048;28;20851;-86
2021/07/08 07:13:28;;;;;;;20.30;4.30;;;20.90;99.90;;;;;;5063950;28;20983;-87
2021/07/08 07:15:55;;;;;;;22.93;4.70;;;20.90;99.90;;;;;;5062143;28;20469;-87
2021/07/08 07:18:24;;;;;;;23.37;4.03;;;21.00;99.90;;;;;;5051191;28;20845;-86
2021/07/08 07:20:52;;;;;;;23.37;5.00;;;21.00;99.90;;;;;;5046550;28;20481;-86
2021/07/08 07:23:19;;;;;;;28.40;4.57;;;21.10;99.90;;;;;;5047029;28;20436;-87
2021/07/08 07:25:47;;;;;;;23.40;4.67;;;21.10;99.90;;;;;;5047124;28;20454;-87
2021/07/08 07:28:15;;;;;;;19.23;3.93;;;21.20;99.90;;;;;;5047349;28;20460;-87
2021/07/08 07:30:42;;;;;;;29.00;4.40;;;21.30;99.90;;;;;;5034198;28;20472;-86
2021/07/08 07:33:09;;;;;;;32.30;5.20;;;21.40;99.90;;;;;;5050941;28;20919;-87
2021/07/08 07:35:36;;;;;;;31.37;5.20;;;21.50;99.90;;;;;;5047869;28;20455;-87
2021/07/08 07:38:10;;;;;;;29.97;3.97;;;21.70;99.90;;;;;;5051435;28;20861;-87
2021/07/08 07:40:37;;;;;;;28.60;4.90;;;21.80;99.90;;;;;;5050329;28;20447;-87
2021/07/08 07:43:04;;;;;;;28.77;4.53;;;21.90;99.90;;;;;;5051099;28;20451;-86
2021/07/08 07:45:31;;;;;;;27.17;4.40;;;22.00;99.90;;;;;;5048261;28;20454;-87
2021/07/08 07:47:58;;;;;;;35.73;7.70;;;22.20;99.90;;;;;;5024909;28;20487;-86
2021/07/08 07:50:26;;;;;;;37.43;5.07;;;22.40;99.90;;;;;;5045537;28;20488;-88
2021/07/08 07:52:55;;;;;;;31.17;4.23;;;22.60;99.90;;;;;;5052330;28;20538;-87
2021/07/08 07:55:26;;;;;;;28.53;3.77;;;22.70;99.90;;;;;;5053921;28;20456;-87
2021/07/08 07:57:53;;;;;;;29.60;4.47;;;22.80;99.90;;;;;;5052623;28;20475;-87
2021/07/08 08:00:20;;;;;;;39.17;7.27;;;23.00;99.90;;;;;;5049594;28;20439;-87
2021/07/08 08:02:47;;;;;;;32.10;5.20;;;23.10;99.90;;;;;;5052945;28;20454;-87
2021/07/08 08:05:22;;;;;;;40.50;11.17;;;23.30;99.90;;;;;;5054561;28;20451;-87
2021/07/08 08:10:37;;;;;;;29.67;4.90;;;23.70;99.90;;;;;;5054029;28;20521;-87
2021/07/08 08:13:06;;;;;;;35.67;10.47;;;23.90;99.90;;;;;;5046668;28;20458;-88
2021/07/08 08:15:33;;;;;;;34.77;5.77;;;24.00;99.90;;;;;;5050754;28;20543;-88
2021/07/08 08:18:00;;;;;;;41.17;10.47;;;24.30;99.90;;;;;;5048644;28;20483;-85
2021/07/08 08:20:28;;;;;;;43.60;14.47;;;24.40;99.90;;;;;;5067932;28;20443;-84
2021/07/08 08:22:55;;;;;;;132.43;122.67;;;24.40;99.90;;;;;;5058887;28;20451;-85
2021/07/08 08:25:23;;;;;;;749.60;706.73;;;24.40;99.90;;;;;;5056526;28;20506;-85
2021/07/08 08:27:51;;;;;;;808.90;759.87;;;24.40;99.90;;;;;;5055942;28;20471;-85
2021/07/08 08:30:18;;;;;;;629.60;595.03;;;24.40;99.90;;;;;;5065404;28;20581;-86
2021/07/08 08:32:45;;;;;;;877.87;821.73;;;24.50;99.90;;;;;;5060153;28;20451;-85
2021/07/08 08:35:12;;;;;;;638.80;602.70;;;24.50;99.90;;;;;;5056748;28;20840;-85
2021/07/08 08:37:41;;;;;;;374.63;355.43;;;24.50;99.90;;;;;;5058605;28;20475;-85
2021/07/08 08:40:09;;;;;;;451.93;428.63;;;24.40;99.90;;;;;;5057662;28;20793;-85
2021/07/08 08:42:36;;;;;;;535.37;502.17;;;24.50;99.90;;;;;;5056612;28;20450;-86
2021/07/08 08:45:07;;;;;;;1003.63;934.87;;;24.50;99.90;;;;;;5051743;28;20550;-85
2021/07/08 08:47:34;;;;;;;837.73;786.57;;;24.80;99.90;;;;;;5052534;28;20537;-85
2021/07/08 08:50:01;;;;;;;1199.53;823.20;;;25.10;99.90;;;;;;5067176;28;21033;-84
2021/07/08 08:52:29;;;;;;;855.10;802.87;;;25.40;99.90;;;;;;5072869;28;21216;-85
2021/07/08 08:54:55;;;;;;;1695.73;998.60;;;25.50;99.90;;;;;;5069481;28;20896;-85
2021/07/08 08:57:22;;;;;;;813.53;746.73;;;25.60;99.90;;;;;;5055133;28;20917;-84
2021/07/08 08:59:49;;;;;;;867.37;811.40;;;25.80;99.90;;;;;;5059442;28;20463;-84
2021/07/08 09:02:19;;;;;;;1599.20;909.33;;;25.90;99.90;;;;;;5057201;28;20455;-85
2021/07/08 09:04:48;;;;;;;1999.90;999.90;;;26.10;99.90;;;;;;5060502;28;20528;-85
2021/07/08 09:07:26;;;;;;;1999.90;999.90;;;26.20;99.90;;;;;;5065002;28;20448;-85
2021/07/08 09:09:54;;;;;;;1053.97;974.13;;;26.10;99.90;;;;;;5060302;28;20562;-85
2021/07/08 09:12:23;;;;;;;326.43;291.97;;;26.30;99.90;;;;;;5058409;28;20539;-84
2021/07/08 09:15:13;;;;;;;1617.87;928.53;;;26.50;99.90;;;;;;5062406;28;20879;-84
2021/07/08 09:17:45;;;;;;;1999.90;999.90;;;26.70;99.90;;;;;;5062462;28;20445;-84
2021/07/08 09:20:18;;;;;;;1999.90;999.90;;;26.50;99.90;;;;;;5062676;28;20527;-84
2021/07/08 09:22:46;;;;;;;1999.90;999.90;;;26.90;99.90;;;;;;5062566;28;20482;-83
2021/07/08 09:25:25;;;;;;;1999.90;999.90;;;26.90;99.90;;;;;;5060445;28;20494;-82
2021/07/08 09:28:08;;;;;;;1999.90;999.90;;;26.90;99.90;;;;;;5059866;28;20473;-83
2021/07/08 09:30:35;;;;;;;1999.90;999.90;;;26.70;99.90;;;;;;5063205;28;20492;-84
2021/07/08 09:33:03;;;;;;;1999.90;999.90;;;26.70;99.90;;;;;;5072967;28;20424;-83
2021/07/08 09:35:34;;;;;;;1999.90;999.90;;;26.80;99.90;;;;;;5072385;28;20448;-84
2021/07/08 09:38:08;;;;;;;1999.90;999.90;;;26.70;99.90;;;;;;5068380;28;21042;-84
2021/07/08 09:40:35;;;;;;;1999.90;999.90;;;26.70;99.90;;;;;;5059306;28;20540;-84
2021/07/08 09:43:02;;;;;;;1999.90;999.90;;;26.80;99.90;;;;;;5075606;28;20450;-84
2021/07/08 09:45:29;;;;;;;417.67;394.63;;;26.70;99.90;;;;;;5063451;28;20456;-83
2021/07/08 09:48:17;;;;;;;365.87;345.03;;;26.80;99.90;;;;;;5059241;28;20939;-84
2021/07/08 09:50:45;;;;;;;1999.90;999.90;;;26.60;99.90;;;;;;5052888;28;20490;-82
2021/07/08 09:53:17;;;;;;;584.30;552.33;;;26.60;99.90;;;;;;5053704;28;20554;-82
2021/07/08 09:56:02;;;;;;;548.63;517.80;;;26.70;99.90;;;;;;5051129;28;20521;-82
2021/07/08 09:58:31;;;;;;;358.47;337.67;;;26.60;99.90;;;;;;5054009;28;20902;-81
2021/07/08 10:00:58;;;;;;;423.07;399.33;;;26.50;99.90;;;;;;5064551;28;20452;-82
2021/07/08 10:03:27;;;;;;;1999.90;999.90;;;26.70;99.90;;;;;;5057358;28;20455;-83
2021/07/08 10:05:53;;;;;;;140.73;129.13;;;26.90;99.90;;;;;;5056079;28;20564;-82
2021/07/08 10:08:21;;;;;;;162.37;150.03;;;26.80;99.90;;;;;;5060358;28;20508;-83
2021/07/08 10:10:48;;;;;;;499.27;471.60;;;26.60;99.90;;;;;;5063194;28;20480;-82
2021/07/08 10:13:17;;;;;;;568.47;538.17;;;26.50;99.90;;;;;;5054883;28;20447;-83
2021/07/08 10:15:46;;;;;;;471.10;446.60;;;26.70;99.90;;;;;;5062121;28;20490;-82
2021/07/08 10:18:14;;;;;;;467.43;441.20;;;26.90;99.90;;;;;;5066446;28;20549;-83
2021/07/08 10:20:48;;;;;;;505.30;478.93;;;26.90;99.90;;;;;;5077149;28;20469;-82
2021/07/08 10:23:15;;;;;;;173.03;159.83;;;26.60;99.90;;;;;;5073989;28;20452;-83
2021/07/08 10:25:43;;;;;;;383.13;362.27;;;26.60;99.90;;;;;;5070827;28;20447;-82
2021/07/08 10:28:11;;;;;;;314.50;296.50;;;26.60;99.90;;;;;;5059314;28;20463;-83
2021/07/08 10:30:38;;;;;;;1999.90;999.90;;;26.50;99.90;;;;;;5057609;28;20570;-83
2021/07/08 10:33:05;;;;;;;1417.37;744.53;;;26.60;99.90;;;;;;5059202;28;20456;-83
2021/07/08 10:35:42;;;;;;;472.73;444.40;;;26.40;99.90;;;;;;5058488;28;20460;-83
2021/07/08 10:38:36;;;;;;;159.13;142.17;;;26.30;99.90;;;;;;5058673;28;20474;-83
2021/07/08 10:41:38;;;;;;;137.17;122.83;;;26.30;99.90;;;;;;5059098;28;20913;-83
2021/07/08 10:44:06;;;;;;;602.97;570.47;;;26.20;99.90;;;;;;5049762;28;20518;-82
2021/07/08 10:46:36;;;;;;;661.33;624.53;;;26.10;99.90;;;;;;5059688;28;20530;-83
2021/07/08 10:49:12;;;;;;;202.03;185.27;;;25.80;99.90;;;;;;5066230;28;20462;-83
2021/07/08 10:51:41;;;;;;;1999.90;999.90;;;25.80;99.90;;;;;;5075260;28;20560;-83
2021/07/08 10:54:28;;;;;;;1999.90;999.90;;;25.80;99.90;;;;;;5073520;28;20483;-83
2021/07/08 10:56:56;;;;;;;116.80;96.93;;;25.90;99.90;;;;;;5058740;28;20554;-83
2021/07/08 10:59:23;;;;;;;1999.90;999.90;;;25.80;99.90;;;;;;5068533;28;20550;-82
2021/07/08 11:01:51;;;;;;;127.73;114.10;;;25.80;99.90;;;;;;5064658;28;20458;-85
2021/07/08 11:04:42;;;;;;;620.93;587.57;;;25.80;99.90;;;;;;5054813;28;20447;-85
2021/07/08 11:07:18;;;;;;;584.90;554.00;;;25.70;99.90;;;;;;5057389;28;20534;-84
2021/07/08 11:10:02;;;;;;;105.07;71.90;;;25.60;99.90;;;;;;5046984;28;20451;-85
2021/07/08 11:12:31;;;;;;;1999.90;999.90;;;25.40;99.90;;;;;;5054142;28;20527;-85
2021/07/08 11:14:59;;;;;;;1999.90;999.90;;;25.30;99.90;;;;;;5068406;28;20456;-83
2021/07/08 11:17:26;;;;;;;1999.90;999.90;;;25.20;99.90;;;;;;5054435;28;20443;-85
2021/07/08 11:19:55;;;;;;;1999.90;999.90;;;24.90;99.90;;;;;;5051107;28;20456;-85
2021/07/08 11:22:43;;;;;;;1999.90;999.90;;;24.80;99.90;;;;;;5047373;28;20455;-86
2021/07/08 11:25:12;;;;;;;1999.90;999.90;;;24.70;99.90;;;;;;5052380;28;20964;-86
2021/07/08 11:27:41;;;;;;;121.50;101.93;;;24.40;99.90;;;;;;5051767;28;20475;-86
2021/07/08 11:30:29;;;;;;;1999.90;999.90;;;24.30;99.90;;;;;;5052983;28;20448;-85
2021/07/08 11:32:59;;;;;;;1999.90;999.90;;;24.10;99.90;;;;;;5045450;28;20444;-87
2021/07/08 11:35:31;;;;;;;1999.90;999.90;;;24.00;99.90;;;;;;5055497;28;20448;-87
2021/07/08 11:38:01;;;;;;;1999.90;999.90;;;23.80;99.90;;;;;;5147423;22;20501;-85
2021/07/08 11:40:36;;;;;;;1999.90;999.90;;;23.70;99.90;;;;;;5092223;28;20454;-85
2021/07/08 11:43:15;;;;;;;1999.90;999.90;;;23.80;99.90;;;;;;5090871;28;20520;-85
2021/07/08 11:45:45;;;;;;;1999.90;999.90;;;23.70;99.90;;;;;;5094430;28;20438;-84
2021/07/08 11:48:12;;;;;;;514.30;483.27;;;23.70;99.90;;;;;;5093711;28;20505;-86
2021/07/08 11:50:40;;;;;;;838.53;787.43;;;23.80;99.90;;;;;;5076779;28;20518;-85
2021/07/08 11:53:10;;;;;;;614.10;580.33;;;23.90;99.90;;;;;;5083212;28;20468;-84
2021/07/08 11:55:40;;;;;;;46.60;11.60;;;24.00;99.90;;;;;;5084152;28;20934;-86
2021/07/08 11:58:08;;;;;;;40.23;8.87;;;24.20;99.90;;;;;;5076409;28;20485;-85
2021/07/08 12:00:38;;;;;;;33.00;4.00;;;24.40;99.90;;;;;;5075839;28;20542;-85
2021/07/08 12:03:23;;;;;;;27.97;2.87;;;24.60;99.90;;;;;;5076581;28;20469;-86
2021/07/08 12:05:51;;;;;;;190.10;177.30;;;24.90;99.90;;;;;;5065554;28;20453;-86
2021/07/08 12:08:25;;;;;;;342.40;323.97;;;25.10;99.90;;;;;;5071740;28;20466;-86
2021/07/08 12:11:06;;;;;;;27.37;2.80;;;25.40;99.90;;;;;;5068415;28;20490;-86
2021/07/08 12:13:36;;;;;;;500.77;473.30;;;25.70;99.90;;;;;;5081398;28;20444;-87
2021/07/08 12:16:05;;;;;;;92.00;83.17;;;26.00;99.90;;;;;;5092672;28;20439;-88
2021/07/08 12:18:42;;;;;;;36.57;4.60;;;26.20;99.90;;;;;;5086893;28;20463;-86
2021/07/08 12:21:21;;;;;;;1999.90;999.90;;;26.50;99.90;;;;;;5069962;28;20450;-88
2021/07/08 12:23:48;;;;;;;1999.90;999.90;;;26.70;99.90;;;;;;5072381;28;20472;-87
2021/07/08 12:26:34;;;;;;;841.80;788.83;;;26.80;99.90;;;;;;5086730;28;20541;-86
2021/07/08 12:29:19;;;;;;;1999.90;999.90;;;26.90;99.90;;;;;;5087745;28;20509;-87
2021/07/08 12:31:57;;;;;;;1999.90;999.90;;;27.00;99.90;;;;;;5067631;28;21069;-87
2021/07/08 12:34:26;;;;;;;1379.80;708.57;;;26.90;99.90;;;;;;5072376;28;20451;-87
2021/07/08 12:36:53;;;;;;;1999.90;999.90;;;26.90;99.90;;;;;;5070426;28;20442;-87
2021/07/08 12:39:26;;;;;;;1999.90;999.90;;;26.90;99.90;;;;;;5071068;28;20584;-87
2021/07/08 12:41:55;;;;;;;1999.90;999.90;;;27.00;99.90;;;;;;5092736;28;20438;-87
2021/07/08 12:44:22;;;;;;;1999.90;999.90;;;27.00;99.90;;;;;;5074980;28;20459;-88